Ahlsell — OYZH — position and weather

sailwx.info

Track history (hours):
 
Tides and Currents Weather Stations Pressure Air Temp Water Temp Dewpoint Dewpoint Depression Visibility Wind Speed Wind Dir Waves Ship Positions

Ahlsell

Last reported at 2015-Jul-04 01:33 UTC. Time now 2015-Jul-04 01:43 UTC.
Position N 55°04' E 014°41'.

Length 40 m; draft 4 m.

Type: Dredging. MMSI: 219000852.

Date/timePositionNaut miles runAvg speedWind from/ knotsBaromVisibWave heightAir tempDewpointWater temp
2015-Jul-04 01:33N 55°04' E 014°41'0 0.0
2015-Jul-04 00:34N 55°04' E 014°41'0 0.0
2015-Jul-03 23:33N 55°04' E 014°41'0 0.3
2015-Jul-03 22:33N 55°04' E 014°41'2 1.9
2015-Jul-03 21:33N 55°06' E 014°41'1 0.9
2015-Jul-03 20:33N 55°05' E 014°41'1 1.3
2015-Jul-03 19:33N 55°04' E 014°41'0 0.0
2015-Jul-03 18:33N 55°04' E 014°41'0 0.0
2015-Jul-03 17:33N 55°04' E 014°41'0 0.0
2015-Jul-03 16:34N 55°04' E 014°41'2 2.0
2015-Jul-03 15:33N 55°06' E 014°41'0 0.0
2015-Jul-03 14:33N 55°06' E 014°41'2 2.0
2015-Jul-03 13:34N 55°04' E 014°41'0 0.0
2015-Jul-03 12:33N 55°04' E 014°41'0 0.0
2015-Jul-03 11:34N 55°04' E 014°41'0 0.0
2015-Jul-03 10:33N 55°04' E 014°41'1 0.5
2015-Jul-03 09:33N 55°04' E 014°41'2 1.6
2015-Jul-03 08:33N 55°06' E 014°41'0 0.0
2015-Jul-03 07:33N 55°06' E 014°41'2 1.9
2015-Jul-03 06:33N 55°04' E 014°41'0 0.0
2015-Jul-03 05:34N 55°04' E 014°41'0 0.0
2015-Jul-03 04:34N 55°04' E 014°41'0 0.0
2015-Jul-03 03:33N 55°04' E 014°41'0 0.0
2015-Jul-03 02:33N 55°04' E 014°41'0 0.0
2015-Jul-03 01:33N 55°04' E 014°41'2 1.9
2015-Jul-03 00:33N 55°06' E 014°41'0 0.5
2015-Jul-02 23:33N 55°06' E 014°41'2 1.6
2015-Jul-02 22:33N 55°04' E 014°41'0 0.0
2015-Jul-02 21:33N 55°04' E 014°41'0 0.0
2015-Jul-02 20:33N 55°04' E 014°41'0 0.0
2015-Jul-02 19:34N 55°04' E 014°41'0 0.0
2015-Jul-02 18:33N 55°04' E 014°41'0 0.3
2015-Jul-02 17:33N 55°04' E 014°41'2 1.7
2015-Jul-02 16:33N 55°06' E 014°41'0 0.1
2015-Jul-02 15:34N 55°06' E 014°41'7 6.5
2015-Jul-02 14:34N 55°00' E 014°46'4 3.6
2015-Jul-02 13:33N 54°57' E 014°50'4 4.1
2015-Jul-02 12:34N 55°00' E 014°46'6 6.1
2015-Jul-02 11:33N 55°06' E 014°41'0 0.0
2015-Jul-02 10:33N 55°06' E 014°41'0 0.1
2015-Jul-02 09:33N 55°06' E 014°41'0 0.0
2015-Jul-02 08:33N 55°06' E 014°41'4 4.3
2015-Jul-02 07:33N 55°02' E 014°40'0 0.0
2015-Jul-02 06:34N 55°02' E 014°40'0 0.0
2015-Jul-02 05:34N 55°02' E 014°40'0 0.0
2015-Jul-02 04:33N 55°02' E 014°40'0 0.0
2015-Jul-02 03:33N 55°02' E 014°40'0 0.0
2015-Jul-02 02:34N 55°02' E 014°40'0 0.0
2015-Jul-02 01:34N 55°02' E 014°40'0 0.0
2015-Jul-02 00:33N 55°02' E 014°40'0 0.0
2015-Jul-01 23:33N 55°02' E 014°40'0 0.0
2015-Jul-01 22:33N 55°02' E 014°40'4 4.3
2015-Jul-01 21:33N 55°06' E 014°41'0 0.0
2015-Jul-01 20:33N 55°06' E 014°41'1 0.9
2015-Jul-01 19:34N 55°05' E 014°40'4 3.5
2015-Jul-01 18:33N 55°02' E 014°40'0 0.0
2015-Jul-01 17:33N 55°02' E 014°40'0 0.0
2015-Jul-01 16:33N 55°02' E 014°40'4 4.3
2015-Jul-01 15:33N 55°06' E 014°41'0 0.0
2015-Jul-01 14:33N 55°06' E 014°41'3 3.4
2015-Jul-01 13:33N 55°03' E 014°40'1 0.7
2015-Jul-01 12:33N 55°02' E 014°39'0 0.0
2015-Jul-01 11:33N 55°02' E 014°39'0 0.0
2015-Jul-01 10:31N 55°02' E 014°39'0 0.1
2015-Jul-01 09:34N 55°02' E 014°39'4 3.9
2015-Jul-01 08:33N 55°06' E 014°41'0 0.0
2015-Jul-01 07:33N 55°06' E 014°41'0 0.4
2015-Jul-01 06:33N 55°06' E 014°41'4 3.6
2015-Jul-01 05:34N 55°02' E 014°41'0 0.0
2015-Jul-01 04:33N 55°02' E 014°41'0 0.0
2015-Jul-01 03:33N 55°02' E 014°41'0 0.0
2015-Jul-01 02:33N 55°02' E 014°41'0 0.0
2015-Jul-01 01:34N 55°02' E 014°41'0 0.0
2015-Jul-01 00:33N 55°02' E 014°41'0 0.0
2015-Jun-30 23:33N 55°02' E 014°41'4 4.0
2015-Jun-30 22:33N 55°06' E 014°41'0 0.0
2015-Jun-30 21:33N 55°06' E 014°41'4 4.0
2015-Jun-30 20:33N 55°02' E 014°41'0 0.0
2015-Jun-30 19:33N 55°02' E 014°41'0 0.1
2015-Jun-30 18:33N 55°02' E 014°41'0 0.0
2015-Jun-30 17:33N 55°02' E 014°41'0 0.0
2015-Jun-30 16:33N 55°02' E 014°41'0 0.0
2015-Jun-30 15:33N 55°02' E 014°41'0 0.1
2015-Jun-30 14:33N 55°02' E 014°41'4 3.9
2015-Jun-30 13:33N 55°06' E 014°41'0 0.0
2015-Jun-30 12:33N 55°06' E 014°41'4 4.0
2015-Jun-30 11:33N 55°02' E 014°41'0 0.0
2015-Jun-30 10:33N 55°02' E 014°41'0 0.0
2015-Jun-30 09:33N 55°02' E 014°41'0 0.0
2015-Jun-30 08:33N 55°02' E 014°41'0 0.0
2015-Jun-30 07:33N 55°02' E 014°41'4 4.0
2015-Jun-30 06:33N 55°06' E 014°41'0 0.0
2015-Jun-30 05:33N 55°06' E 014°41'4 3.9
2015-Jun-30 04:33N 55°02' E 014°41'0 0.0
2015-Jun-30 03:33N 55°02' E 014°41'0 0.0
2015-Jun-30 02:33N 55°02' E 014°41'0 0.0
2015-Jun-30 01:33N 55°02' E 014°41'0 0.0
2015-Jun-30 00:33N 55°02' E 014°41'4 3.6
2015-Jun-29 23:33N 55°06' E 014°41'1 0.5
2015-Jun-29 22:33N 55°06' E 014°41'2 1.7
2015-Jun-29 21:33N 55°04' E 014°40'2 1.9
2015-Jun-29 20:33N 55°03' E 014°40'0 0.1
2015-Jun-29 19:33N 55°02' E 014°40'0 0.0
2015-Jun-29 18:34N 55°03' E 014°40'0 0.0
2015-Jun-29 17:33N 55°02' E 014°40'0 0.0
2015-Jun-29 16:33N 55°03' E 014°40'0 0.0
2015-Jun-29 15:33N 55°02' E 014°40'1 1.2
2015-Jun-29 14:33N 55°04' E 014°41'2 2.3
2015-Jun-29 13:33N 55°06' E 014°41'2 1.6
2015-Jun-29 12:33N 55°05' E 014°40'2 2.0
2015-Jun-29 11:33N 55°02' E 014°40'0 0.0
2015-Jun-29 10:33N 55°02' E 014°40'0 0.0
2015-Jun-29 09:33N 55°02' E 014°40'0 0.0
2015-Jun-29 08:33N 55°02' E 014°40'0 0.0
2015-Jun-29 07:33N 55°02' E 014°40'3 3.5
2015-Jun-29 06:33N 55°06' E 014°41'0 0.0
2015-Jun-29 05:33N 55°06' E 014°41'0 0.1
2015-Jun-29 04:33N 55°06' E 014°41'0 0.0
2015-Jun-29 03:33N 55°06' E 014°41'0 0.0
2015-Jun-29 02:33N 55°06' E 014°41'0 0.0
2015-Jun-29 01:33N 55°06' E 014°41'0 0.0
2015-Jun-29 00:33N 55°06' E 014°41'0 0.0
2015-Jun-28 23:33N 55°06' E 014°41'0 0.0
2015-Jun-28 22:33N 55°06' E 014°41'0 0.0
2015-Jun-28 21:33N 55°06' E 014°41'0 0.0
2015-Jun-28 20:33N 55°06' E 014°41'0 0.0
2015-Jun-28 19:33N 55°06' E 014°41'0 0.0
2015-Jun-28 18:33N 55°06' E 014°41'0 0.0
2015-Jun-28 17:33N 55°06' E 014°41'0 0.0
2015-Jun-28 16:33N 55°06' E 014°41'0 0.0
2015-Jun-28 15:33N 55°06' E 014°41'0 0.0
2015-Jun-28 14:33N 55°06' E 014°41'0 0.0
2015-Jun-28 13:33N 55°06' E 014°41'0 0.0
2015-Jun-28 12:33N 55°06' E 014°41'0 0.0
2015-Jun-28 11:33N 55°06' E 014°41'0 0.0
2015-Jun-28 10:33N 55°06' E 014°41'0 0.0
2015-Jun-28 09:33N 55°06' E 014°41'0 0.0
2015-Jun-28 08:33N 55°06' E 014°41'0 0.0
2015-Jun-28 07:33N 55°06' E 014°41'0 0.0
2015-Jun-28 06:33N 55°06' E 014°41'0 0.0
2015-Jun-28 05:33N 55°06' E 014°41'0 0.0
2015-Jun-28 04:33N 55°06' E 014°41'0 0.0
2015-Jun-28 03:33N 55°06' E 014°41'0 0.0
2015-Jun-28 02:33N 55°06' E 014°41'0 0.0
2015-Jun-28 01:33N 55°06' E 014°41'0 0.0
2015-Jun-28 00:33N 55°06' E 014°41'0 0.0
2015-Jun-27 23:33N 55°06' E 014°41'0 0.0
2015-Jun-27 22:33N 55°06' E 014°41'0 0.0
2015-Jun-27 21:33N 55°06' E 014°41'0 0.0
2015-Jun-27 20:33N 55°06' E 014°41'0 0.0
2015-Jun-27 19:33N 55°06' E 014°41'0 0.0
2015-Jun-27 18:33N 55°06' E 014°41'0 0.0
2015-Jun-27 17:33N 55°06' E 014°41'0 0.0
2015-Jun-27 16:33N 55°06' E 014°41'0 0.0
2015-Jun-27 15:33N 55°06' E 014°41'0 0.0
2015-Jun-27 14:33N 55°06' E 014°41'0 0.0
2015-Jun-27 13:33N 55°06' E 014°41'0 0.0
2015-Jun-27 12:33N 55°06' E 014°41'0 0.0
2015-Jun-27 11:33N 55°06' E 014°41'0 0.0
2015-Jun-27 10:33N 55°06' E 014°41'0 0.0
2015-Jun-27 09:33N 55°06' E 014°41'0 0.0
2015-Jun-27 08:33N 55°06' E 014°41'0 0.0
2015-Jun-27 07:33N 55°06' E 014°41'0 0.0
2015-Jun-27 06:33N 55°06' E 014°41'0 0.0
2015-Jun-27 05:33N 55°06' E 014°41'0 0.0
2015-Jun-27 04:33N 55°06' E 014°41'0 0.0
2015-Jun-27 03:33N 55°06' E 014°41'1 1.0
2015-Jun-27 02:33N 55°05' E 014°40'3 3.2
2015-Jun-27 01:33N 55°02' E 014°41'0 0.0
2015-Jun-27 00:33N 55°02' E 014°41'0 0.0
2015-Jun-26 23:33N 55°02' E 014°41'0 0.0
2015-Jun-26 22:33N 55°02' E 014°41'0 0.0
2015-Jun-26 21:33N 55°02' E 014°41'4 4.0
2015-Jun-26 20:33N 55°06' E 014°41'0 0.0
2015-Jun-26 19:33N 55°06' E 014°41'1 1.4
2015-Jun-26 18:33N 55°05' E 014°40'3 2.6
2015-Jun-26 17:33N 55°02' E 014°41'0 0.0
2015-Jun-26 16:33N 55°02' E 014°41'0 0.0
2015-Jun-26 15:33N 55°02' E 014°41'0 0.0
2015-Jun-26 14:33N 55°02' E 014°41'0 0.0
2015-Jun-26 13:33N 55°02' E 014°41'1 0.8
2015-Jun-26 12:33N 55°03' E 014°41'3 3.1
2015-Jun-26 11:33N 55°06' E 014°41'0 0.0
2015-Jun-26 10:33N 55°06' E 014°41'1 0.5
2015-Jun-26 09:33N 55°06' E 014°41'4 3.5
2015-Jun-26 08:33N 55°02' E 014°41'0 0.0
2015-Jun-26 07:33N 55°02' E 014°41'0 0.0
2015-Jun-26 06:33N 55°02' E 014°41'0 0.0
2015-Jun-26 05:33N 55°02' E 014°41'0 0.0
2015-Jun-26 04:33N 55°02' E 014°41'0 0.0
2015-Jun-26 03:33N 55°02' E 014°41'4 4.0
2015-Jun-26 02:33N 55°06' E 014°41'0 0.0
2015-Jun-26 01:33N 55°06' E 014°41'2 1.7
2015-Jun-26 00:33N 55°04' E 014°40'2 2.4
2015-Jun-25 23:33N 55°02' E 014°41'0 0.0
2015-Jun-25 22:33N 55°02' E 014°41'0 0.0
2015-Jun-25 21:33N 55°02' E 014°41'0 0.0
2015-Jun-25 20:33N 55°02' E 014°41'2 1.5
2015-Jun-25 19:33N 55°03' E 014°40'2 2.5
2015-Jun-25 18:33N 55°06' E 014°41'0 0.0
2015-Jun-25 17:33N 55°06' E 014°41'4 3.5
2015-Jun-25 16:34N 55°02' E 014°41'5 5.3
2015-Jun-25 15:33N 54°58' E 014°47'3 2.6
2015-Jun-25 14:33N 54°56' E 014°50'0 0.0
2015-Jun-25 13:33N 54°56' E 014°50'7 6.7
2015-Jun-25 12:33N 55°01' E 014°42'5 4.6
2015-Jun-25 11:33N 55°06' E 014°41'0 0.0
2015-Jun-25 10:31N 55°06' E 014°41'1 1.0
2015-Jun-25 09:33N 55°05' E 014°40'5 4.6
2015-Jun-25 08:33N 55°01' E 014°43'5 4.9
2015-Jun-25 07:33N 54°57' E 014°49'1 1.3
2015-Jun-25 06:33N 54°56' E 014°50'0 0.2
2015-Jun-25 05:33N 54°57' E 014°50'8 8.3
2015-Jun-25 04:33N 55°04' E 014°42'2 2.4
2015-Jun-25 03:33N 55°06' E 014°41'0 0.0
2015-Jun-25 02:31N 55°06' E 014°41'0 0.0
2015-Jun-25 01:33N 55°06' E 014°41'0 0.0
2015-Jun-25 00:33N 55°06' E 014°41'0 0.0
2015-Jun-24 23:33N 55°06' E 014°41'0 0.0
2015-Jun-24 22:33N 55°06' E 014°41'0 0.0
2015-Jun-24 21:33N 55°06' E 014°41'0 0.0
2015-Jun-24 20:33N 55°06' E 014°41'0 0.0
2015-Jun-24 19:32N 55°06' E 014°41'0 0.0
2015-Jun-24 18:33N 55°06' E 014°41'0 0.0
2015-Jun-24 17:33N 55°06' E 014°41'0 0.0
2015-Jun-24 16:30N 55°06' E 014°41'0 0.1
2015-Jun-24 15:33N 55°06' E 014°41'0 0.0
2015-Jun-24 14:33N 55°06' E 014°41'0 0.0
2015-Jun-24 13:33N 55°06' E 014°41'4 3.9
2015-Jun-24 12:33N 55°02' E 014°41'5 4.5
2015-Jun-24 11:33N 54°59' E 014°47'3 2.7
2015-Jun-24 10:33N 54°57' E 014°51'2 2.3
2015-Jun-24 09:33N 54°59' E 014°48'8 7.9
2015-Jun-24 08:33N 55°06' E 014°41'0 0.1
2015-Jun-24 07:33N 55°06' E 014°41'0 0.0
2015-Jun-24 06:33N 55°06' E 014°41'2 1.9
2015-Jun-24 05:33N 55°04' E 014°41'0 0.0
2015-Jun-24 04:33N 55°04' E 014°41'0 0.0
2015-Jun-24 03:33N 55°04' E 014°41'0 0.0
2015-Jun-24 02:33N 55°04' E 014°41'  
Track history (hours):
 
Tides and Currents Weather Stations Pressure Air Temp Water Temp Dewpoint Dewpoint Depression Visibility Wind Speed Wind Dir Waves Ship Positions

Ahlsell

Last reported at 2015-Jul-04 01:33 UTC. Time now 2015-Jul-04 01:43 UTC.
Position N 55°04' E 014°41'.

Length 40 m; draft 4 m.

Type: Dredging. MMSI: 219000852.

Date/timePositionNaut miles runAvg speedWind from/ knotsBaromVisibWave heightAir tempDewpointWater temp
2015-Jul-04 01:33N 55°04' E 014°41'0 0.0
2015-Jul-04 00:34N 55°04' E 014°41'0 0.0
2015-Jul-03 23:33N 55°04' E 014°41'0 0.3
2015-Jul-03 22:33N 55°04' E 014°41'2 1.9
2015-Jul-03 21:33N 55°06' E 014°41'1 0.9
2015-Jul-03 20:33N 55°05' E 014°41'1 1.3
2015-Jul-03 19:33N 55°04' E 014°41'0 0.0
2015-Jul-03 18:33N 55°04' E 014°41'0 0.0
2015-Jul-03 17:33N 55°04' E 014°41'0 0.0
2015-Jul-03 16:34N 55°04' E 014°41'2 2.0
2015-Jul-03 15:33N 55°06' E 014°41'0 0.0
2015-Jul-03 14:33N 55°06' E 014°41'2 2.0
2015-Jul-03 13:34N 55°04' E 014°41'0 0.0
2015-Jul-03 12:33N 55°04' E 014°41'0 0.0
2015-Jul-03 11:34N 55°04' E 014°41'0 0.0
2015-Jul-03 10:33N 55°04' E 014°41'1 0.5
2015-Jul-03 09:33N 55°04' E 014°41'2 1.6
2015-Jul-03 08:33N 55°06' E 014°41'0 0.0
2015-Jul-03 07:33N 55°06' E 014°41'2 1.9
2015-Jul-03 06:33N 55°04' E 014°41'0 0.0
2015-Jul-03 05:34N 55°04' E 014°41'0 0.0
2015-Jul-03 04:34N 55°04' E 014°41'0 0.0
2015-Jul-03 03:33N 55°04' E 014°41'0 0.0
2015-Jul-03 02:33N 55°04' E 014°41'0 0.0
2015-Jul-03 01:33N 55°04' E 014°41'2 1.9
2015-Jul-03 00:33N 55°06' E 014°41'0 0.5
2015-Jul-02 23:33N 55°06' E 014°41'2 1.6
2015-Jul-02 22:33N 55°04' E 014°41'0 0.0
2015-Jul-02 21:33N 55°04' E 014°41'0 0.0
2015-Jul-02 20:33N 55°04' E 014°41'0 0.0
2015-Jul-02 19:34N 55°04' E 014°41'0 0.0
2015-Jul-02 18:33N 55°04' E 014°41'0 0.3
2015-Jul-02 17:33N 55°04' E 014°41'2 1.7
2015-Jul-02 16:33N 55°06' E 014°41'0 0.1
2015-Jul-02 15:34N 55°06' E 014°41'7 6.5
2015-Jul-02 14:34N 55°00' E 014°46'4 3.6
2015-Jul-02 13:33N 54°57' E 014°50'4 4.1
2015-Jul-02 12:34N 55°00' E 014°46'6 6.1
2015-Jul-02 11:33N 55°06' E 014°41'0 0.0
2015-Jul-02 10:33N 55°06' E 014°41'0 0.1
2015-Jul-02 09:33N 55°06' E 014°41'0 0.0
2015-Jul-02 08:33N 55°06' E 014°41'4 4.3
2015-Jul-02 07:33N 55°02' E 014°40'0 0.0
2015-Jul-02 06:34N 55°02' E 014°40'0 0.0
2015-Jul-02 05:34N 55°02' E 014°40'0 0.0
2015-Jul-02 04:33N 55°02' E 014°40'0 0.0
2015-Jul-02 03:33N 55°02' E 014°40'0 0.0
2015-Jul-02 02:34N 55°02' E 014°40'0 0.0
2015-Jul-02 01:34N 55°02' E 014°40'0 0.0
2015-Jul-02 00:33N 55°02' E 014°40'0 0.0
2015-Jul-01 23:33N 55°02' E 014°40'0 0.0
2015-Jul-01 22:33N 55°02' E 014°40'4 4.3
2015-Jul-01 21:33N 55°06' E 014°41'0 0.0
2015-Jul-01 20:33N 55°06' E 014°41'1 0.9
2015-Jul-01 19:34N 55°05' E 014°40'4 3.5
2015-Jul-01 18:33N 55°02' E 014°40'0 0.0
2015-Jul-01 17:33N 55°02' E 014°40'0 0.0
2015-Jul-01 16:33N 55°02' E 014°40'4 4.3
2015-Jul-01 15:33N 55°06' E 014°41'0 0.0
2015-Jul-01 14:33N 55°06' E 014°41'3 3.4
2015-Jul-01 13:33N 55°03' E 014°40'1 0.7
2015-Jul-01 12:33N 55°02' E 014°39'0 0.0
2015-Jul-01 11:33N 55°02' E 014°39'0 0.0
2015-Jul-01 10:31N 55°02' E 014°39'0 0.1
2015-Jul-01 09:34N 55°02' E 014°39'4 3.9
2015-Jul-01 08:33N 55°06' E 014°41'0 0.0
2015-Jul-01 07:33N 55°06' E 014°41'0 0.4
2015-Jul-01 06:33N 55°06' E 014°41'4 3.6
2015-Jul-01 05:34N 55°02' E 014°41'0 0.0
2015-Jul-01 04:33N 55°02' E 014°41'0 0.0
2015-Jul-01 03:33N 55°02' E 014°41'0 0.0
2015-Jul-01 02:33N 55°02' E 014°41'0 0.0
2015-Jul-01 01:34N 55°02' E 014°41'0 0.0
2015-Jul-01 00:33N 55°02' E 014°41'0 0.0
2015-Jun-30 23:33N 55°02' E 014°41'4 4.0
2015-Jun-30 22:33N 55°06' E 014°41'0 0.0
2015-Jun-30 21:33N 55°06' E 014°41'4 4.0
2015-Jun-30 20:33N 55°02' E 014°41'0 0.0
2015-Jun-30 19:33N 55°02' E 014°41'0 0.1
2015-Jun-30 18:33N 55°02' E 014°41'0 0.0
2015-Jun-30 17:33N 55°02' E 014°41'0 0.0
2015-Jun-30 16:33N 55°02' E 014°41'0 0.0
2015-Jun-30 15:33N 55°02' E 014°41'0 0.1
2015-Jun-30 14:33N 55°02' E 014°41'4 3.9
2015-Jun-30 13:33N 55°06' E 014°41'0 0.0
2015-Jun-30 12:33N 55°06' E 014°41'4 4.0
2015-Jun-30 11:33N 55°02' E 014°41'0 0.0
2015-Jun-30 10:33N 55°02' E 014°41'0 0.0
2015-Jun-30 09:33N 55°02' E 014°41'0 0.0
2015-Jun-30 08:33N 55°02' E 014°41'0 0.0
2015-Jun-30 07:33N 55°02' E 014°41'4 4.0
2015-Jun-30 06:33N 55°06' E 014°41'0 0.0
2015-Jun-30 05:33N 55°06' E 014°41'4 3.9
2015-Jun-30 04:33N 55°02' E 014°41'0 0.0
2015-Jun-30 03:33N 55°02' E 014°41'0 0.0
2015-Jun-30 02:33N 55°02' E 014°41'0 0.0
2015-Jun-30 01:33N 55°02' E 014°41'0 0.0
2015-Jun-30 00:33N 55°02' E 014°41'4 3.6
2015-Jun-29 23:33N 55°06' E 014°41'1 0.5
2015-Jun-29 22:33N 55°06' E 014°41'2 1.7
2015-Jun-29 21:33N 55°04' E 014°40'2 1.9
2015-Jun-29 20:33N 55°03' E 014°40'0 0.1
2015-Jun-29 19:33N 55°02' E 014°40'0 0.0
2015-Jun-29 18:34N 55°03' E 014°40'0 0.0
2015-Jun-29 17:33N 55°02' E 014°40'0 0.0
2015-Jun-29 16:33N 55°03' E 014°40'0 0.0
2015-Jun-29 15:33N 55°02' E 014°40'1 1.2
2015-Jun-29 14:33N 55°04' E 014°41'2 2.3
2015-Jun-29 13:33N 55°06' E 014°41'2 1.6
2015-Jun-29 12:33N 55°05' E 014°40'2 2.0
2015-Jun-29 11:33N 55°02' E 014°40'0 0.0
2015-Jun-29 10:33N 55°02' E 014°40'0 0.0
2015-Jun-29 09:33N 55°02' E 014°40'0 0.0
2015-Jun-29 08:33N 55°02' E 014°40'0 0.0
2015-Jun-29 07:33N 55°02' E 014°40'3 3.5
2015-Jun-29 06:33N 55°06' E 014°41'0 0.0
2015-Jun-29 05:33N 55°06' E 014°41'0 0.1
2015-Jun-29 04:33N 55°06' E 014°41'0 0.0
2015-Jun-29 03:33N 55°06' E 014°41'0 0.0
2015-Jun-29 02:33N 55°06' E 014°41'0 0.0
2015-Jun-29 01:33N 55°06' E 014°41'0 0.0
2015-Jun-29 00:33N 55°06' E 014°41'0 0.0
2015-Jun-28 23:33N 55°06' E 014°41'0 0.0
2015-Jun-28 22:33N 55°06' E 014°41'0 0.0
2015-Jun-28 21:33N 55°06' E 014°41'0 0.0
2015-Jun-28 20:33N 55°06' E 014°41'0 0.0
2015-Jun-28 19:33N 55°06' E 014°41'0 0.0
2015-Jun-28 18:33N 55°06' E 014°41'0 0.0
2015-Jun-28 17:33N 55°06' E 014°41'0 0.0
2015-Jun-28 16:33N 55°06' E 014°41'0 0.0
2015-Jun-28 15:33N 55°06' E 014°41'0 0.0
2015-Jun-28 14:33N 55°06' E 014°41'0 0.0
2015-Jun-28 13:33N 55°06' E 014°41'0 0.0
2015-Jun-28 12:33N 55°06' E 014°41'0 0.0
2015-Jun-28 11:33N 55°06' E 014°41'0 0.0
2015-Jun-28 10:33N 55°06' E 014°41'0 0.0
2015-Jun-28 09:33N 55°06' E 014°41'0 0.0
2015-Jun-28 08:33N 55°06' E 014°41'0 0.0
2015-Jun-28 07:33N 55°06' E 014°41'0 0.0
2015-Jun-28 06:33N 55°06' E 014°41'0 0.0
2015-Jun-28 05:33N 55°06' E 014°41'0 0.0
2015-Jun-28 04:33N 55°06' E 014°41'0 0.0
2015-Jun-28 03:33N 55°06' E 014°41'0 0.0
2015-Jun-28 02:33N 55°06' E 014°41'0 0.0
2015-Jun-28 01:33N 55°06' E 014°41'0 0.0
2015-Jun-28 00:33N 55°06' E 014°41'0 0.0
2015-Jun-27 23:33N 55°06' E 014°41'0 0.0
2015-Jun-27 22:33N 55°06' E 014°41'0 0.0
2015-Jun-27 21:33N 55°06' E 014°41'0 0.0
2015-Jun-27 20:33N 55°06' E 014°41'0 0.0
2015-Jun-27 19:33N 55°06' E 014°41'0 0.0
2015-Jun-27 18:33N 55°06' E 014°41'0 0.0
2015-Jun-27 17:33N 55°06' E 014°41'0 0.0
2015-Jun-27 16:33N 55°06' E 014°41'0 0.0
2015-Jun-27 15:33N 55°06' E 014°41'0 0.0
2015-Jun-27 14:33N 55°06' E 014°41'0 0.0
2015-Jun-27 13:33N 55°06' E 014°41'0 0.0
2015-Jun-27 12:33N 55°06' E 014°41'0 0.0
2015-Jun-27 11:33N 55°06' E 014°41'0 0.0
2015-Jun-27 10:33N 55°06' E 014°41'0 0.0
2015-Jun-27 09:33N 55°06' E 014°41'0 0.0
2015-Jun-27 08:33N 55°06' E 014°41'0 0.0
2015-Jun-27 07:33N 55°06' E 014°41'0 0.0
2015-Jun-27 06:33N 55°06' E 014°41'0 0.0
2015-Jun-27 05:33N 55°06' E 014°41'0 0.0
2015-Jun-27 04:33N 55°06' E 014°41'0 0.0
2015-Jun-27 03:33N 55°06' E 014°41'1 1.0
2015-Jun-27 02:33N 55°05' E 014°40'3 3.2
2015-Jun-27 01:33N 55°02' E 014°41'0 0.0
2015-Jun-27 00:33N 55°02' E 014°41'0 0.0
2015-Jun-26 23:33N 55°02' E 014°41'0 0.0
2015-Jun-26 22:33N 55°02' E 014°41'0 0.0
2015-Jun-26 21:33N 55°02' E 014°41'4 4.0
2015-Jun-26 20:33N 55°06' E 014°41'0 0.0
2015-Jun-26 19:33N 55°06' E 014°41'1 1.4
2015-Jun-26 18:33N 55°05' E 014°40'3 2.6
2015-Jun-26 17:33N 55°02' E 014°41'0 0.0
2015-Jun-26 16:33N 55°02' E 014°41'0 0.0
2015-Jun-26 15:33N 55°02' E 014°41'0 0.0
2015-Jun-26 14:33N 55°02' E 014°41'0 0.0
2015-Jun-26 13:33N 55°02' E 014°41'1 0.8
2015-Jun-26 12:33N 55°03' E 014°41'3 3.1
2015-Jun-26 11:33N 55°06' E 014°41'0 0.0
2015-Jun-26 10:33N 55°06' E 014°41'1 0.5
2015-Jun-26 09:33N 55°06' E 014°41'4 3.5
2015-Jun-26 08:33N 55°02' E 014°41'0 0.0
2015-Jun-26 07:33N 55°02' E 014°41'0 0.0
2015-Jun-26 06:33N 55°02' E 014°41'0 0.0
2015-Jun-26 05:33N 55°02' E 014°41'0 0.0
2015-Jun-26 04:33N 55°02' E 014°41'0 0.0
2015-Jun-26 03:33N 55°02' E 014°41'4 4.0
2015-Jun-26 02:33N 55°06' E 014°41'0 0.0
2015-Jun-26 01:33N 55°06' E 014°41'2 1.7
2015-Jun-26 00:33N 55°04' E 014°40'2 2.4
2015-Jun-25 23:33N 55°02' E 014°41'0 0.0
2015-Jun-25 22:33N 55°02' E 014°41'0 0.0
2015-Jun-25 21:33N 55°02' E 014°41'0 0.0
2015-Jun-25 20:33N 55°02' E 014°41'2 1.5
2015-Jun-25 19:33N 55°03' E 014°40'2 2.5
2015-Jun-25 18:33N 55°06' E 014°41'0 0.0
2015-Jun-25 17:33N 55°06' E 014°41'4 3.5
2015-Jun-25 16:34N 55°02' E 014°41'5 5.3
2015-Jun-25 15:33N 54°58' E 014°47'3 2.6
2015-Jun-25 14:33N 54°56' E 014°50'0 0.0
2015-Jun-25 13:33N 54°56' E 014°50'7 6.7
2015-Jun-25 12:33N 55°01' E 014°42'5 4.6
2015-Jun-25 11:33N 55°06' E 014°41'0 0.0
2015-Jun-25 10:31N 55°06' E 014°41'1 1.0
2015-Jun-25 09:33N 55°05' E 014°40'5 4.6
2015-Jun-25 08:33N 55°01' E 014°43'5 4.9
2015-Jun-25 07:33N 54°57' E 014°49'1 1.3
2015-Jun-25 06:33N 54°56' E 014°50'0 0.2
2015-Jun-25 05:33N 54°57' E 014°50'8 8.3
2015-Jun-25 04:33N 55°04' E 014°42'2 2.4
2015-Jun-25 03:33N 55°06' E 014°41'0 0.0
2015-Jun-25 02:31N 55°06' E 014°41'0 0.0
2015-Jun-25 01:33N 55°06' E 014°41'0 0.0
2015-Jun-25 00:33N 55°06' E 014°41'0 0.0
2015-Jun-24 23:33N 55°06' E 014°41'0 0.0
2015-Jun-24 22:33N 55°06' E 014°41'0 0.0
2015-Jun-24 21:33N 55°06' E 014°41'0 0.0
2015-Jun-24 20:33N 55°06' E 014°41'0 0.0
2015-Jun-24 19:32N 55°06' E 014°41'0 0.0
2015-Jun-24 18:33N 55°06' E 014°41'0 0.0
2015-Jun-24 17:33N 55°06' E 014°41'0 0.0
2015-Jun-24 16:30N 55°06' E 014°41'0 0.1
2015-Jun-24 15:33N 55°06' E 014°41'0 0.0
2015-Jun-24 14:33N 55°06' E 014°41'0 0.0
2015-Jun-24 13:33N 55°06' E 014°41'4 3.9
2015-Jun-24 12:33N 55°02' E 014°41'5 4.5
2015-Jun-24 11:33N 54°59' E 014°47'3 2.7
2015-Jun-24 10:33N 54°57' E 014°51'2 2.3
2015-Jun-24 09:33N 54°59' E 014°48'8 7.9
2015-Jun-24 08:33N 55°06' E 014°41'0 0.1
2015-Jun-24 07:33N 55°06' E 014°41'0 0.0
2015-Jun-24 06:33N 55°06' E 014°41'2 1.9
2015-Jun-24 05:33N 55°04' E 014°41'0 0.0
2015-Jun-24 04:33N 55°04' E 014°41'0 0.0
2015-Jun-24 03:33N 55°04' E 014°41'0 0.0
2015-Jun-24 02:33N 55°04' E 014°41'  

Dump ship's entire track history